sensor_id;sensor_type;location;lat;lon;timestamp;P1;durP1;ratioP1;P2;durP2;ratioP2
23561;SDS011;11959;49.418;8.728;2023-03-01T00:00:53;14.30;;;9.32;;
23561;SDS011;11959;49.418;8.728;2023-03-01T00:03:18;14.18;;;8.35;;
23561;SDS011;11959;49.418;8.728;2023-03-01T00:05:44;13.02;;;8.27;;
23561;SDS011;11959;49.418;8.728;2023-03-01T00:08:11;14.80;;;9.35;;
23561;SDS011;11959;49.418;8.728;2023-03-01T00:10:36;13.93;;;9.65;;
23561;SDS011;11959;49.418;8.728;2023-03-01T00:13:02;14.50;;;9.20;;
23561;SDS011;11959;49.418;8.728;2023-03-01T00:15:30;14.70;;;9.70;;
23561;SDS011;11959;49.418;8.728;2023-03-01T00:17:56;14.00;;;9.25;;
23561;SDS011;11959;49.418;8.728;2023-03-01T00:20:22;13.77;;;9.35;;
23561;SDS011;11959;49.418;8.728;2023-03-01T00:22:48;13.82;;;9.15;;
23561;SDS011;11959;49.418;8.728;2023-03-01T00:25:13;14.15;;;9.45;;
23561;SDS011;11959;49.418;8.728;2023-03-01T00:27:39;16.83;;;9.88;;
23561;SDS011;11959;49.418;8.728;2023-03-01T00:30:05;17.13;;;9.52;;
23561;SDS011;11959;49.418;8.728;2023-03-01T00:32:31;18.92;;;10.07;;
23561;SDS011;11959;49.418;8.728;2023-03-01T00:34:57;15.32;;;9.13;;
23561;SDS011;11959;49.418;8.728;2023-03-01T00:37:23;16.85;;;9.65;;
23561;SDS011;11959;49.418;8.728;2023-03-01T00:39:48;16.42;;;10.13;;
23561;SDS011;11959;49.418;8.728;2023-03-01T00:42:15;15.77;;;9.65;;
23561;SDS011;11959;49.418;8.728;2023-03-01T00:44:41;14.48;;;9.27;;
23561;SDS011;11959;49.418;8.728;2023-03-01T00:47:07;16.92;;;10.25;;
23561;SDS011;11959;49.418;8.728;2023-03-01T00:49:32;16.30;;;9.85;;
23561;SDS011;11959;49.418;8.728;2023-03-01T00:51:59;15.27;;;9.98;;
23561;SDS011;11959;49.418;8.728;2023-03-01T00:54:24;15.38;;;10.40;;
23561;SDS011;11959;49.418;8.728;2023-03-01T00:56:50;15.85;;;9.65;;
23561;SDS011;11959;49.418;8.728;2023-03-01T00:59:16;17.58;;;10.43;;
23561;SDS011;11959;49.418;8.728;2023-03-01T01:01:41;16.08;;;10.30;;
23561;SDS011;11959;49.418;8.728;2023-03-01T01:04:08;17.70;;;10.63;;
23561;SDS011;11959;49.418;8.728;2023-03-01T01:06:40;18.45;;;10.85;;
23561;SDS011;11959;49.418;8.728;2023-03-01T01:11:42;18.17;;;9.90;;
23561;SDS011;11959;49.418;8.728;2023-03-01T01:14:09;15.98;;;10.18;;
23561;SDS011;11959;49.418;8.728;2023-03-01T01:16:35;19.42;;;10.80;;
23561;SDS011;11959;49.418;8.728;2023-03-01T01:19:00;17.05;;;10.57;;
23561;SDS011;11959;49.418;8.728;2023-03-01T01:21:26;17.20;;;10.40;;
23561;SDS011;11959;49.418;8.728;2023-03-01T01:23:53;18.13;;;10.88;;
23561;SDS011;11959;49.418;8.728;2023-03-01T01:26:23;17.27;;;10.82;;
23561;SDS011;11959;49.418;8.728;2023-03-01T01:28:51;16.65;;;10.65;;
23561;SDS011;11959;49.418;8.728;2023-03-01T01:31:17;18.85;;;11.15;;
23561;SDS011;11959;49.418;8.728;2023-03-01T01:33:43;17.30;;;11.18;;
23561;SDS011;11959;49.418;8.728;2023-03-01T01:36:09;19.48;;;10.88;;
23561;SDS011;11959;49.418;8.728;2023-03-01T01:38:36;18.83;;;11.07;;
23561;SDS011;11959;49.418;8.728;2023-03-01T01:41:03;18.27;;;11.05;;
23561;SDS011;11959;49.418;8.728;2023-03-01T01:43:31;15.40;;;10.45;;
23561;SDS011;11959;49.418;8.728;2023-03-01T01:46:23;16.27;;;10.38;;
23561;SDS011;11959;49.418;8.728;2023-03-01T01:49:25;17.10;;;10.75;;
23561;SDS011;11959;49.418;8.728;2023-03-01T01:54:46;15.88;;;10.38;;
23561;SDS011;11959;49.418;8.728;2023-03-01T01:57:19;18.73;;;11.23;;
23561;SDS011;11959;49.418;8.728;2023-03-01T01:59:50;17.30;;;10.63;;
23561;SDS011;11959;49.418;8.728;2023-03-01T02:02:19;16.08;;;11.00;;
23561;SDS011;11959;49.418;8.728;2023-03-01T02:04:46;18.33;;;10.98;;
23561;SDS011;11959;49.418;8.728;2023-03-01T02:07:15;19.70;;;11.32;;
23561;SDS011;11959;49.418;8.728;2023-03-01T02:09:46;18.25;;;10.80;;
23561;SDS011;11959;49.418;8.728;2023-03-01T02:12:14;17.70;;;11.52;;
23561;SDS011;11959;49.418;8.728;2023-03-01T02:14:42;17.55;;;11.13;;
23561;SDS011;11959;49.418;8.728;2023-03-01T02:17:09;17.23;;;11.23;;
23561;SDS011;11959;49.418;8.728;2023-03-01T02:22:24;20.27;;;10.75;;
23561;SDS011;11959;49.418;8.728;2023-03-01T02:28:05;19.30;;;11.80;;
23561;SDS011;11959;49.418;8.728;2023-03-01T02:33:24;19.30;;;11.73;;
23561;SDS011;11959;49.418;8.728;2023-03-01T02:35:51;18.02;;;10.90;;
23561;SDS011;11959;49.418;8.728;2023-03-01T02:38:19;20.55;;;12.20;;
23561;SDS011;11959;49.418;8.728;2023-03-01T02:40:47;19.48;;;11.15;;
23561;SDS011;11959;49.418;8.728;2023-03-01T02:43:15;19.83;;;12.35;;
23561;SDS011;11959;49.418;8.728;2023-03-01T02:45:47;18.20;;;11.48;;
23561;SDS011;11959;49.418;8.728;2023-03-01T02:48:15;18.27;;;11.25;;
23561;SDS011;11959;49.418;8.728;2023-03-01T02:53:41;18.52;;;11.93;;
23561;SDS011;11959;49.418;8.728;2023-03-01T02:56:10;21.42;;;12.95;;
23561;SDS011;11959;49.418;8.728;2023-03-01T02:58:39;19.67;;;11.98;;
23561;SDS011;11959;49.418;8.728;2023-03-01T03:01:11;23.42;;;12.77;;
23561;SDS011;11959;49.418;8.728;2023-03-01T03:03:38;19.17;;;11.80;;
23561;SDS011;11959;49.418;8.728;2023-03-01T03:06:04;19.50;;;12.10;;
23561;SDS011;11959;49.418;8.728;2023-03-01T03:08:30;19.20;;;12.43;;
23561;SDS011;11959;49.418;8.728;2023-03-01T03:10:55;20.00;;;11.93;;
23561;SDS011;11959;49.418;8.728;2023-03-01T03:13:21;21.27;;;12.32;;
23561;SDS011;11959;49.418;8.728;2023-03-01T03:15:47;21.13;;;12.82;;
23561;SDS011;11959;49.418;8.728;2023-03-01T03:18:14;20.48;;;12.10;;
23561;SDS011;11959;49.418;8.728;2023-03-01T03:20:41;19.30;;;12.02;;
23561;SDS011;11959;49.418;8.728;2023-03-01T03:23:08;21.80;;;12.45;;
23561;SDS011;11959;49.418;8.728;2023-03-01T03:25:34;18.80;;;11.73;;
23561;SDS011;11959;49.418;8.728;2023-03-01T03:28:02;21.60;;;12.75;;
23561;SDS011;11959;49.418;8.728;2023-03-01T03:30:34;21.80;;;12.68;;
23561;SDS011;11959;49.418;8.728;2023-03-01T03:33:01;19.45;;;11.38;;
23561;SDS011;11959;49.418;8.728;2023-03-01T03:35:28;21.67;;;12.30;;
23561;SDS011;11959;49.418;8.728;2023-03-01T03:37:55;19.05;;;12.50;;
23561;SDS011;11959;49.418;8.728;2023-03-01T03:40:38;21.27;;;12.90;;
23561;SDS011;11959;49.418;8.728;2023-03-01T03:43:09;20.20;;;12.35;;
23561;SDS011;11959;49.418;8.728;2023-03-01T03:45:37;21.20;;;12.38;;
23561;SDS011;11959;49.418;8.728;2023-03-01T03:48:03;21.35;;;12.43;;
23561;SDS011;11959;49.418;8.728;2023-03-01T03:50:31;21.48;;;13.18;;
23561;SDS011;11959;49.418;8.728;2023-03-01T03:52:57;20.95;;;12.30;;
23561;SDS011;11959;49.418;8.728;2023-03-01T03:55:24;21.15;;;11.93;;
23561;SDS011;11959;49.418;8.728;2023-03-01T03:57:54;19.58;;;12.57;;
23561;SDS011;11959;49.418;8.728;2023-03-01T04:00:23;18.25;;;11.15;;
23561;SDS011;11959;49.418;8.728;2023-03-01T04:02:49;19.60;;;11.98;;
23561;SDS011;11959;49.418;8.728;2023-03-01T04:05:17;20.40;;;12.45;;
23561;SDS011;11959;49.418;8.728;2023-03-01T04:07:43;21.48;;;12.43;;
23561;SDS011;11959;49.418;8.728;2023-03-01T04:10:11;21.95;;;13.25;;
23561;SDS011;11959;49.418;8.728;2023-03-01T04:12:39;20.40;;;12.63;;
23561;SDS011;11959;49.418;8.728;2023-03-01T04:15:05;19.95;;;12.52;;
23561;SDS011;11959;49.418;8.728;2023-03-01T04:17:40;21.80;;;12.80;;
23561;SDS011;11959;49.418;8.728;2023-03-01T04:20:11;19.65;;;11.82;;
23561;SDS011;11959;49.418;8.728;2023-03-01T04:22:39;20.98;;;12.50;;
23561;SDS011;11959;49.418;8.728;2023-03-01T04:25:05;21.98;;;12.40;;
23561;SDS011;11959;49.418;8.728;2023-03-01T04:27:35;21.42;;;12.93;;
23561;SDS011;11959;49.418;8.728;2023-03-01T04:30:02;21.00;;;13.05;;
23561;SDS011;11959;49.418;8.728;2023-03-01T04:32:28;20.48;;;12.50;;
23561;SDS011;11959;49.418;8.728;2023-03-01T04:34:54;24.80;;;12.77;;
23561;SDS011;11959;49.418;8.728;2023-03-01T04:37:19;21.75;;;13.05;;
23561;SDS011;11959;49.418;8.728;2023-03-01T04:39:45;22.77;;;12.73;;
23561;SDS011;11959;49.418;8.728;2023-03-01T04:42:12;21.95;;;12.52;;
23561;SDS011;11959;49.418;8.728;2023-03-01T04:44:39;22.20;;;12.77;;
23561;SDS011;11959;49.418;8.728;2023-03-01T04:47:05;24.83;;;13.23;;
23561;SDS011;11959;49.418;8.728;2023-03-01T04:49:30;21.52;;;13.15;;
23561;SDS011;11959;49.418;8.728;2023-03-01T04:51:56;22.90;;;13.55;;
23561;SDS011;11959;49.418;8.728;2023-03-01T04:54:27;21.00;;;13.45;;
23561;SDS011;11959;49.418;8.728;2023-03-01T04:56:53;23.52;;;13.85;;
23561;SDS011;11959;49.418;8.728;2023-03-01T04:59:19;24.98;;;14.48;;
23561;SDS011;11959;49.418;8.728;2023-03-01T05:01:47;23.73;;;14.35;;
23561;SDS011;11959;49.418;8.728;2023-03-01T05:04:13;22.98;;;14.13;;
23561;SDS011;11959;49.418;8.728;2023-03-01T05:06:40;21.50;;;12.73;;
23561;SDS011;11959;49.418;8.728;2023-03-01T05:09:05;22.33;;;13.63;;
23561;SDS011;11959;49.418;8.728;2023-03-01T05:11:31;20.23;;;11.75;;
23561;SDS011;11959;49.418;8.728;2023-03-01T05:14:01;23.08;;;13.25;;
23561;SDS011;11959;49.418;8.728;2023-03-01T05:16:27;22.17;;;13.05;;
23561;SDS011;11959;49.418;8.728;2023-03-01T05:18:53;21.75;;;12.77;;
23561;SDS011;11959;49.418;8.728;2023-03-01T05:21:20;23.08;;;14.07;;
23561;SDS011;11959;49.418;8.728;2023-03-01T05:23:47;22.20;;;12.93;;
23561;SDS011;11959;49.418;8.728;2023-03-01T05:26:16;24.40;;;13.48;;
23561;SDS011;11959;49.418;8.728;2023-03-01T05:28:47;24.77;;;14.32;;
23561;SDS011;11959;49.418;8.728;2023-03-01T05:31:18;23.83;;;13.80;;
23561;SDS011;11959;49.418;8.728;2023-03-01T05:33:47;23.83;;;13.63;;
23561;SDS011;11959;49.418;8.728;2023-03-01T05:36:15;19.80;;;12.82;;
23561;SDS011;11959;49.418;8.728;2023-03-01T05:38:40;24.33;;;13.65;;
23561;SDS011;11959;49.418;8.728;2023-03-01T05:41:12;25.23;;;14.05;;
23561;SDS011;11959;49.418;8.728;2023-03-01T05:43:39;25.58;;;14.25;;
23561;SDS011;11959;49.418;8.728;2023-03-01T05:46:08;27.27;;;16.15;;
23561;SDS011;11959;49.418;8.728;2023-03-01T05:48:37;24.58;;;13.35;;
23561;SDS011;11959;49.418;8.728;2023-03-01T05:51:03;28.83;;;15.45;;
23561;SDS011;11959;49.418;8.728;2023-03-01T05:53:29;26.92;;;15.10;;
23561;SDS011;11959;49.418;8.728;2023-03-01T05:55:55;28.10;;;15.30;;
23561;SDS011;11959;49.418;8.728;2023-03-01T05:58:20;28.85;;;15.35;;
23561;SDS011;11959;49.418;8.728;2023-03-01T06:00:47;28.33;;;15.50;;
23561;SDS011;11959;49.418;8.728;2023-03-01T06:03:14;34.47;;;18.25;;
23561;SDS011;11959;49.418;8.728;2023-03-01T06:05:41;36.00;;;18.90;;
23561;SDS011;11959;49.418;8.728;2023-03-01T06:08:08;34.75;;;18.40;;
23561;SDS011;11959;49.418;8.728;2023-03-01T06:10:35;30.15;;;15.88;;
23561;SDS011;11959;49.418;8.728;2023-03-01T06:13:00;34.00;;;17.63;;
23561;SDS011;11959;49.418;8.728;2023-03-01T06:15:26;36.78;;;19.17;;
23561;SDS011;11959;49.418;8.728;2023-03-01T06:17:53;37.95;;;20.25;;
23561;SDS011;11959;49.418;8.728;2023-03-01T06:20:22;42.15;;;22.58;;
23561;SDS011;11959;49.418;8.728;2023-03-01T06:22:49;28.85;;;16.35;;
23561;SDS011;11959;49.418;8.728;2023-03-01T06:25:17;38.13;;;21.13;;
23561;SDS011;11959;49.418;8.728;2023-03-01T06:27:44;35.58;;;19.50;;
23561;SDS011;11959;49.418;8.728;2023-03-01T06:30:12;29.23;;;16.92;;
23561;SDS011;11959;49.418;8.728;2023-03-01T06:32:39;38.80;;;20.98;;
23561;SDS011;11959;49.418;8.728;2023-03-01T06:35:12;28.48;;;16.50;;
23561;SDS011;11959;49.418;8.728;2023-03-01T06:37:39;27.23;;;15.25;;
23561;SDS011;11959;49.418;8.728;2023-03-01T06:40:05;41.50;;;22.23;;
23561;SDS011;11959;49.418;8.728;2023-03-01T06:42:34;26.20;;;14.65;;
23561;SDS011;11959;49.418;8.728;2023-03-01T06:45:03;25.60;;;14.23;;
23561;SDS011;11959;49.418;8.728;2023-03-01T06:47:31;25.25;;;14.52;;
23561;SDS011;11959;49.418;8.728;2023-03-01T06:49:58;25.85;;;14.20;;
23561;SDS011;11959;49.418;8.728;2023-03-01T06:52:24;31.13;;;17.63;;
23561;SDS011;11959;49.418;8.728;2023-03-01T06:54:50;41.63;;;21.20;;
23561;SDS011;11959;49.418;8.728;2023-03-01T06:57:16;25.10;;;14.88;;
23561;SDS011;11959;49.418;8.728;2023-03-01T06:59:41;54.60;;;26.63;;
23561;SDS011;11959;49.418;8.728;2023-03-01T07:02:09;44.72;;;22.73;;
23561;SDS011;11959;49.418;8.728;2023-03-01T07:04:36;26.73;;;15.52;;
23561;SDS011;11959;49.418;8.728;2023-03-01T07:07:02;43.72;;;23.50;;
23561;SDS011;11959;49.418;8.728;2023-03-01T07:09:28;24.73;;;14.52;;
23561;SDS011;11959;49.418;8.728;2023-03-01T07:11:53;32.90;;;18.73;;
23561;SDS011;11959;49.418;8.728;2023-03-01T07:14:19;29.95;;;16.75;;
23561;SDS011;11959;49.418;8.728;2023-03-01T07:16:45;43.65;;;24.25;;
23561;SDS011;11959;49.418;8.728;2023-03-01T07:19:11;28.85;;;16.92;;
23561;SDS011;11959;49.418;8.728;2023-03-01T07:21:37;26.35;;;15.05;;
23561;SDS011;11959;49.418;8.728;2023-03-01T07:24:04;34.50;;;17.98;;
23561;SDS011;11959;49.418;8.728;2023-03-01T07:26:31;25.98;;;15.07;;
23561;SDS011;11959;49.418;8.728;2023-03-01T07:29:00;29.42;;;16.60;;
23561;SDS011;11959;49.418;8.728;2023-03-01T07:31:28;22.33;;;13.52;;
23561;SDS011;11959;49.418;8.728;2023-03-01T07:33:54;23.05;;;14.35;;
23561;SDS011;11959;49.418;8.728;2023-03-01T07:36:20;20.98;;;13.50;;
23561;SDS011;11959;49.418;8.728;2023-03-01T07:38:46;27.98;;;15.63;;
23561;SDS011;11959;49.418;8.728;2023-03-01T07:41:12;25.75;;;14.90;;
23561;SDS011;11959;49.418;8.728;2023-03-01T07:43:38;24.80;;;14.05;;
23561;SDS011;11959;49.418;8.728;2023-03-01T07:46:03;24.20;;;14.15;;
23561;SDS011;11959;49.418;8.728;2023-03-01T07:48:29;23.02;;;13.48;;
23561;SDS011;11959;49.418;8.728;2023-03-01T07:51:00;23.23;;;13.30;;
23561;SDS011;11959;49.418;8.728;2023-03-01T07:53:27;24.67;;;14.05;;
23561;SDS011;11959;49.418;8.728;2023-03-01T07:56:00;25.02;;;14.20;;
23561;SDS011;11959;49.418;8.728;2023-03-01T07:58:27;22.15;;;13.63;;
23561;SDS011;11959;49.418;8.728;2023-03-01T08:00:52;23.20;;;13.68;;
23561;SDS011;11959;49.418;8.728;2023-03-01T08:03:18;25.33;;;14.63;;
23561;SDS011;11959;49.418;8.728;2023-03-01T08:05:44;22.85;;;13.48;;
23561;SDS011;11959;49.418;8.728;2023-03-01T08:08:09;23.58;;;14.00;;
23561;SDS011;11959;49.418;8.728;2023-03-01T08:10:35;25.73;;;15.02;;
23561;SDS011;11959;49.418;8.728;2023-03-01T08:13:01;24.98;;;14.27;;
23561;SDS011;11959;49.418;8.728;2023-03-01T08:15:27;23.73;;;14.02;;
23561;SDS011;11959;49.418;8.728;2023-03-01T08:17:53;24.98;;;14.15;;
23561;SDS011;11959;49.418;8.728;2023-03-01T08:20:18;23.52;;;15.13;;
23561;SDS011;11959;49.418;8.728;2023-03-01T08:22:44;22.50;;;13.60;;
23561;SDS011;11959;49.418;8.728;2023-03-01T08:25:10;24.45;;;14.73;;
23561;SDS011;11959;49.418;8.728;2023-03-01T08:27:35;24.33;;;13.65;;
23561;SDS011;11959;49.418;8.728;2023-03-01T08:30:01;24.95;;;14.10;;
23561;SDS011;11959;49.418;8.728;2023-03-01T08:32:27;22.48;;;14.27;;
23561;SDS011;11959;49.418;8.728;2023-03-01T08:34:52;23.67;;;14.13;;
23561;SDS011;11959;49.418;8.728;2023-03-01T08:37:18;23.90;;;14.63;;
23561;SDS011;11959;49.418;8.728;2023-03-01T08:39:43;23.15;;;13.55;;
23561;SDS011;11959;49.418;8.728;2023-03-01T08:42:09;23.70;;;14.18;;
23561;SDS011;11959;49.418;8.728;2023-03-01T08:44:35;22.30;;;13.98;;
23561;SDS011;11959;49.418;8.728;2023-03-01T08:47:00;23.20;;;14.20;;
23561;SDS011;11959;49.418;8.728;2023-03-01T08:49:27;24.15;;;14.00;;
23561;SDS011;11959;49.418;8.728;2023-03-01T08:51:53;24.42;;;14.73;;
23561;SDS011;11959;49.418;8.728;2023-03-01T08:54:20;22.30;;;14.05;;
23561;SDS011;11959;49.418;8.728;2023-03-01T08:56:47;26.00;;;14.82;;
23561;SDS011;11959;49.418;8.728;2023-03-01T08:59:14;25.15;;;15.00;;
23561;SDS011;11959;49.418;8.728;2023-03-01T09:01:40;28.75;;;15.02;;
23561;SDS011;11959;49.418;8.728;2023-03-01T09:04:08;23.13;;;14.95;;
23561;SDS011;11959;49.418;8.728;2023-03-01T09:06:35;23.63;;;15.32;;
23561;SDS011;11959;49.418;8.728;2023-03-01T09:09:02;25.92;;;15.30;;
23561;SDS011;11959;49.418;8.728;2023-03-01T09:11:29;25.77;;;15.77;;
23561;SDS011;11959;49.418;8.728;2023-03-01T09:13:55;25.67;;;15.52;;
23561;SDS011;11959;49.418;8.728;2023-03-01T09:16:21;24.88;;;14.95;;
23561;SDS011;11959;49.418;8.728;2023-03-01T09:18:51;26.25;;;14.95;;
23561;SDS011;11959;49.418;8.728;2023-03-01T09:21:20;25.42;;;14.60;;
23561;SDS011;11959;49.418;8.728;2023-03-01T09:23:47;23.83;;;15.07;;
23561;SDS011;11959;49.418;8.728;2023-03-01T09:26:18;24.80;;;15.35;;
23561;SDS011;11959;49.418;8.728;2023-03-01T09:28:46;17.37;;;11.20;;
23561;SDS011;11959;49.418;8.728;2023-03-01T09:31:13;26.50;;;16.00;;
23561;SDS011;11959;49.418;8.728;2023-03-01T09:33:40;24.35;;;15.45;;
23561;SDS011;11959;49.418;8.728;2023-03-01T09:36:09;23.15;;;15.02;;
23561;SDS011;11959;49.418;8.728;2023-03-01T09:38:39;24.35;;;15.20;;
23561;SDS011;11959;49.418;8.728;2023-03-01T09:41:09;23.95;;;15.45;;
23561;SDS011;11959;49.418;8.728;2023-03-01T09:43:49;27.52;;;15.13;;
23561;SDS011;11959;49.418;8.728;2023-03-01T09:46:19;27.88;;;15.98;;
23561;SDS011;11959;49.418;8.728;2023-03-01T09:48:50;24.45;;;15.00;;
23561;SDS011;11959;49.418;8.728;2023-03-01T09:51:27;24.55;;;15.65;;
23561;SDS011;11959;49.418;8.728;2023-03-01T09:54:03;25.70;;;15.38;;
23561;SDS011;11959;49.418;8.728;2023-03-01T10:01:57;25.45;;;15.45;;
23561;SDS011;11959;49.418;8.728;2023-03-01T10:07:37;24.95;;;15.45;;
23561;SDS011;11959;49.418;8.728;2023-03-01T10:10:22;24.50;;;14.93;;
23561;SDS011;11959;49.418;8.728;2023-03-01T10:12:52;25.30;;;15.00;;
23561;SDS011;11959;49.418;8.728;2023-03-01T10:15:22;23.27;;;15.05;;
23561;SDS011;11959;49.418;8.728;2023-03-01T10:18:00;25.77;;;15.50;;
23561;SDS011;11959;49.418;8.728;2023-03-01T10:23:15;24.48;;;14.55;;
23561;SDS011;11959;49.418;8.728;2023-03-01T10:25:47;23.40;;;14.68;;
23561;SDS011;11959;49.418;8.728;2023-03-01T10:28:26;23.67;;;14.52;;
23561;SDS011;11959;49.418;8.728;2023-03-01T10:30:57;24.02;;;15.77;;
23561;SDS011;11959;49.418;8.728;2023-03-01T10:33:27;25.63;;;14.68;;
23561;SDS011;11959;49.418;8.728;2023-03-01T10:35:57;24.17;;;14.40;;
23561;SDS011;11959;49.418;8.728;2023-03-01T10:38:22;23.27;;;14.48;;
23561;SDS011;11959;49.418;8.728;2023-03-01T10:40:59;21.77;;;13.55;;
23561;SDS011;11959;49.418;8.728;2023-03-01T10:43:52;21.55;;;14.48;;
23561;SDS011;11959;49.418;8.728;2023-03-01T10:46:29;23.33;;;14.23;;
23561;SDS011;11959;49.418;8.728;2023-03-01T10:51:43;24.35;;;13.80;;
23561;SDS011;11959;49.418;8.728;2023-03-01T10:54:18;25.20;;;13.82;;
23561;SDS011;11959;49.418;8.728;2023-03-01T10:56:50;22.13;;;13.48;;
23561;SDS011;11959;49.418;8.728;2023-03-01T10:59:28;23.02;;;14.35;;
23561;SDS011;11959;49.418;8.728;2023-03-01T11:02:02;19.73;;;13.20;;
23561;SDS011;11959;49.418;8.728;2023-03-01T11:04:28;21.15;;;13.07;;
23561;SDS011;11959;49.418;8.728;2023-03-01T11:06:58;21.92;;;13.65;;
23561;SDS011;11959;49.418;8.728;2023-03-01T11:09:25;22.63;;;13.18;;
23561;SDS011;11959;49.418;8.728;2023-03-01T11:11:55;19.50;;;12.35;;
23561;SDS011;11959;49.418;8.728;2023-03-01T11:14:23;19.65;;;13.07;;
23561;SDS011;11959;49.418;8.728;2023-03-01T11:17:04;20.70;;;12.45;;
23561;SDS011;11959;49.418;8.728;2023-03-01T11:19:36;22.60;;;13.68;;
23561;SDS011;11959;49.418;8.728;2023-03-01T11:22:07;20.02;;;12.57;;
23561;SDS011;11959;49.418;8.728;2023-03-01T11:24:46;17.10;;;12.02;;
23561;SDS011;11959;49.418;8.728;2023-03-01T11:27:35;18.27;;;12.15;;
23561;SDS011;11959;49.418;8.728;2023-03-01T11:30:21;18.08;;;11.70;;
23561;SDS011;11959;49.418;8.728;2023-03-01T11:33:05;18.80;;;11.98;;
23561;SDS011;11959;49.418;8.728;2023-03-01T11:35:53;20.05;;;11.98;;
23561;SDS011;11959;49.418;8.728;2023-03-01T11:38:26;16.95;;;11.32;;
23561;SDS011;11959;49.418;8.728;2023-03-01T11:40:59;18.65;;;11.95;;
23561;SDS011;11959;49.418;8.728;2023-03-01T12:08:28;19.08;;;12.80;;
23561;SDS011;11959;49.418;8.728;2023-03-01T12:25:00;19.85;;;11.80;;
23561;SDS011;11959;49.418;8.728;2023-03-01T12:30:21;18.85;;;10.90;;
23561;SDS011;11959;49.418;8.728;2023-03-01T12:35:36;16.20;;;11.55;;
23561;SDS011;11959;49.418;8.728;2023-03-01T12:44:03;19.42;;;13.43;;
23561;SDS011;11959;49.418;8.728;2023-03-01T12:46:49;19.15;;;12.45;;
23561;SDS011;11959;49.418;8.728;2023-03-01T12:49:31;19.52;;;12.23;;
23561;SDS011;11959;49.418;8.728;2023-03-01T12:52:16;18.40;;;12.88;;
23561;SDS011;11959;49.418;8.728;2023-03-01T12:54:47;18.52;;;12.68;;
23561;SDS011;11959;49.418;8.728;2023-03-01T12:57:16;17.60;;;12.23;;
23561;SDS011;11959;49.418;8.728;2023-03-01T13:02:44;16.45;;;10.77;;
23561;SDS011;11959;49.418;8.728;2023-03-01T13:08:29;18.50;;;11.38;;
23561;SDS011;11959;49.418;8.728;2023-03-01T13:11:03;16.20;;;11.40;;
23561;SDS011;11959;49.418;8.728;2023-03-01T13:13:30;15.30;;;10.80;;
23561;SDS011;11959;49.418;8.728;2023-03-01T13:15:57;16.83;;;10.45;;
23561;SDS011;11959;49.418;8.728;2023-03-01T13:18:42;34.67;;;14.80;;
23561;SDS011;11959;49.418;8.728;2023-03-01T13:21:08;17.52;;;11.65;;
23561;SDS011;11959;49.418;8.728;2023-03-01T13:23:35;16.42;;;11.00;;
23561;SDS011;11959;49.418;8.728;2023-03-01T13:30:59;19.40;;;12.05;;
23561;SDS011;11959;49.418;8.728;2023-03-01T13:35:53;15.80;;;10.68;;
23561;SDS011;11959;49.418;8.728;2023-03-01T13:41:24;17.67;;;11.57;;
23561;SDS011;11959;49.418;8.728;2023-03-01T13:44:11;16.05;;;10.30;;
23561;SDS011;11959;49.418;8.728;2023-03-01T13:46:50;15.77;;;10.55;;
23561;SDS011;11959;49.418;8.728;2023-03-01T13:55:36;15.93;;;10.20;;
23561;SDS011;11959;49.418;8.728;2023-03-01T14:00:54;17.95;;;10.93;;
23561;SDS011;11959;49.418;8.728;2023-03-01T14:03:21;15.68;;;11.20;;
23561;SDS011;11959;49.418;8.728;2023-03-01T14:05:58;15.18;;;9.98;;
23561;SDS011;11959;49.418;8.728;2023-03-01T14:08:33;16.52;;;10.90;;
23561;SDS011;11959;49.418;8.728;2023-03-01T14:14:14;17.42;;;11.15;;
23561;SDS011;11959;49.418;8.728;2023-03-01T14:19:29;15.88;;;10.23;;
23561;SDS011;11959;49.418;8.728;2023-03-01T14:22:01;14.57;;;9.98;;
23561;SDS011;11959;49.418;8.728;2023-03-01T14:24:51;16.10;;;9.77;;
23561;SDS011;11959;49.418;8.728;2023-03-01T14:27:38;16.77;;;10.43;;
23561;SDS011;11959;49.418;8.728;2023-03-01T14:32:37;14.55;;;10.25;;
23561;SDS011;11959;49.418;8.728;2023-03-01T14:35:18;16.70;;;11.70;;
23561;SDS011;11959;49.418;8.728;2023-03-01T14:37:48;16.48;;;10.88;;
23561;SDS011;11959;49.418;8.728;2023-03-01T14:40:28;17.05;;;10.95;;
23561;SDS011;11959;49.418;8.728;2023-03-01T14:42:57;17.77;;;11.18;;
23561;SDS011;11959;49.418;8.728;2023-03-01T14:45:26;15.48;;;10.13;;
23561;SDS011;11959;49.418;8.728;2023-03-01T14:47:54;16.88;;;11.23;;
23561;SDS011;11959;49.418;8.728;2023-03-01T14:50:34;16.40;;;11.02;;
23561;SDS011;11959;49.418;8.728;2023-03-01T14:53:02;17.65;;;10.52;;
23561;SDS011;11959;49.418;8.728;2023-03-01T14:58:06;16.80;;;10.77;;
23561;SDS011;11959;49.418;8.728;2023-03-01T15:00:37;15.02;;;10.00;;
23561;SDS011;11959;49.418;8.728;2023-03-01T15:03:14;14.60;;;10.10;;
23561;SDS011;11959;49.418;8.728;2023-03-01T15:05:58;14.52;;;9.70;;
23561;SDS011;11959;49.418;8.728;2023-03-01T15:08:26;16.50;;;10.63;;
23561;SDS011;11959;49.418;8.728;2023-03-01T15:13:38;15.30;;;10.30;;
23561;SDS011;11959;49.418;8.728;2023-03-01T15:21:22;17.95;;;10.02;;
23561;SDS011;11959;49.418;8.728;2023-03-01T15:23:54;15.23;;;10.35;;
23561;SDS011;11959;49.418;8.728;2023-03-01T15:26:27;13.90;;;9.82;;
23561;SDS011;11959;49.418;8.728;2023-03-01T15:28:55;13.20;;;10.02;;
23561;SDS011;11959;49.418;8.728;2023-03-01T15:31:33;15.57;;;10.55;;
23561;SDS011;11959;49.418;8.728;2023-03-01T15:34:10;16.55;;;10.48;;
23561;SDS011;11959;49.418;8.728;2023-03-01T15:36:47;13.45;;;9.48;;
23561;SDS011;11959;49.418;8.728;2023-03-01T15:42:08;14.85;;;10.07;;
23561;SDS011;11959;49.418;8.728;2023-03-01T15:44:37;16.08;;;10.40;;
23561;SDS011;11959;49.418;8.728;2023-03-01T15:49:54;16.38;;;10.38;;
23561;SDS011;11959;49.418;8.728;2023-03-01T15:55:05;18.92;;;10.18;;
23561;SDS011;11959;49.418;8.728;2023-03-01T15:57:40;16.23;;;10.82;;
23561;SDS011;11959;49.418;8.728;2023-03-01T16:00:08;14.55;;;9.65;;
23561;SDS011;11959;49.418;8.728;2023-03-01T16:02:38;14.20;;;10.15;;
23561;SDS011;11959;49.418;8.728;2023-03-01T16:05:06;18.35;;;11.15;;
23561;SDS011;11959;49.418;8.728;2023-03-01T16:07:52;15.70;;;10.30;;
23561;SDS011;11959;49.418;8.728;2023-03-01T16:10:18;15.75;;;10.00;;
23561;SDS011;11959;49.418;8.728;2023-03-01T16:12:44;16.70;;;10.02;;
23561;SDS011;11959;49.418;8.728;2023-03-01T16:15:19;15.45;;;10.27;;
23561;SDS011;11959;49.418;8.728;2023-03-01T16:17:48;16.13;;;10.23;;
23561;SDS011;11959;49.418;8.728;2023-03-01T16:20:14;15.45;;;10.65;;
23561;SDS011;11959;49.418;8.728;2023-03-01T16:22:43;13.57;;;9.45;;
23561;SDS011;11959;49.418;8.728;2023-03-01T16:25:10;14.82;;;10.18;;
23561;SDS011;11959;49.418;8.728;2023-03-01T16:27:37;13.63;;;9.77;;
23561;SDS011;11959;49.418;8.728;2023-03-01T16:30:03;15.52;;;9.85;;
23561;SDS011;11959;49.418;8.728;2023-03-01T16:32:31;15.40;;;9.93;;
23561;SDS011;11959;49.418;8.728;2023-03-01T16:34:56;15.25;;;9.82;;
23561;SDS011;11959;49.418;8.728;2023-03-01T16:37:22;15.40;;;10.20;;
23561;SDS011;11959;49.418;8.728;2023-03-01T16:39:48;16.55;;;9.88;;
23561;SDS011;11959;49.418;8.728;2023-03-01T16:42:17;15.15;;;9.82;;
23561;SDS011;11959;49.418;8.728;2023-03-01T16:44:42;15.95;;;9.52;;
23561;SDS011;11959;49.418;8.728;2023-03-01T16:47:08;16.02;;;9.80;;
23561;SDS011;11959;49.418;8.728;2023-03-01T16:49:34;15.18;;;10.05;;